createdAt,value
2023-06-21T00:00:40.783Z,20.67
2023-06-21T00:04:40.554Z,22.42
2023-06-21T00:08:40.482Z,22.37
2023-06-21T00:12:40.606Z,22.17
2023-06-21T00:16:40.269Z,21.3
2023-06-21T00:20:40.682Z,21.33
2023-06-21T00:24:40.541Z,26.5
2023-06-21T00:28:40.574Z,21.52
2023-06-21T00:32:40.422Z,24.45
2023-06-21T00:36:40.453Z,21.87
2023-06-21T00:40:40.606Z,22.5
2023-06-21T00:44:40.456Z,23.73
2023-06-21T00:48:40.993Z,23.83
2023-06-21T00:52:40.509Z,23.33
2023-06-21T00:56:40.372Z,23.85
2023-06-21T01:00:40.169Z,24.85
2023-06-21T01:04:41.130Z,26.15
2023-06-21T01:08:40.493Z,24.73
2023-06-21T01:12:39.679Z,24.52
2023-06-21T01:16:40.857Z,22.83
2023-06-21T01:20:40.568Z,27.27
2023-06-21T01:24:40.335Z,23.5
2023-06-21T01:28:40.754Z,27.6
2023-06-21T01:32:40.562Z,24.3
2023-06-21T01:36:40.470Z,25.5
2023-06-21T01:40:40.502Z,25.5
2023-06-21T01:44:40.484Z,25.3
2023-06-21T01:48:40.606Z,24.83
2023-06-21T01:52:40.631Z,26.8
2023-06-21T01:56:40.528Z,25.85
2023-06-21T02:00:40.303Z,26.73
2023-06-21T02:04:40.789Z,25.77
2023-06-21T02:08:40.815Z,25.25
2023-06-21T02:12:40.745Z,21.7
2023-06-21T02:16:40.262Z,23.15
2023-06-21T02:20:40.604Z,28.52
2023-06-21T02:24:39.704Z,21.23
2023-06-21T02:28:41.103Z,22.62
2023-06-21T02:32:40.533Z,24.77
2023-06-21T02:36:40.043Z,24.48
2023-06-21T02:40:40.551Z,24.3
2023-06-21T02:44:40.518Z,29.75
2023-06-21T02:48:40.670Z,30.25
2023-06-21T02:52:40.436Z,35.33
2023-06-21T02:56:40.238Z,37.97
2023-06-21T03:00:40.472Z,33.08
2023-06-21T03:04:40.677Z,35.83
2023-06-21T03:08:40.446Z,39.8
2023-06-21T03:12:40.535Z,38.92
2023-06-21T03:16:39.748Z,37.3
2023-06-21T03:20:40.519Z,39.1
2023-06-21T03:24:40.737Z,45.5
2023-06-21T03:28:40.653Z,47.6
2023-06-21T03:32:40.136Z,45.28
2023-06-21T03:36:39.630Z,42.65
2023-06-21T03:40:40.483Z,43.15
2023-06-21T03:44:40.407Z,43.67
2023-06-21T03:48:40.864Z,43.85
2023-06-21T03:52:40.350Z,43.03
2023-06-21T03:56:40.357Z,38.55
2023-06-21T04:00:40.422Z,37.92
2023-06-21T04:04:40.499Z,35.22
2023-06-21T04:08:40.432Z,41.6
2023-06-21T04:12:40.598Z,32.58
2023-06-21T04:16:40.960Z,36.63
2023-06-21T04:20:39.711Z,31.1
2023-06-21T04:24:40.943Z,37.35
2023-06-21T04:28:40.379Z,30.95
2023-06-21T04:32:40.389Z,32.97
2023-06-21T04:36:40.423Z,31.42
2023-06-21T04:40:41.099Z,35.17
2023-06-21T04:44:40.456Z,33.3
2023-06-21T04:48:40.542Z,38.65
2023-06-21T04:52:40.732Z,36.35
2023-06-21T04:56:40.294Z,39.78
2023-06-21T05:00:40.823Z,40.38
2023-06-21T05:04:40.390Z,33.78
2023-06-21T05:08:40.547Z,31.48
2023-06-21T05:12:40.298Z,29.17
2023-06-21T05:16:40.486Z,29.33
2023-06-21T05:20:40.766Z,28.23
2023-06-21T05:24:40.710Z,24.33
2023-06-21T05:28:40.465Z,26.37
2023-06-21T05:32:40.440Z,20.5
2023-06-21T05:36:39.767Z,23.25
2023-06-21T05:40:41.310Z,19.7
2023-06-21T05:44:40.563Z,21.77
2023-06-21T05:48:39.807Z,20.25
2023-06-21T05:52:40.505Z,16.9
2023-06-21T05:56:40.232Z,17.15
2023-06-21T06:00:40.198Z,15.25
2023-06-21T06:04:40.518Z,15.7
2023-06-21T06:08:40.463Z,12.98
2023-06-21T06:12:40.891Z,11.88
2023-06-21T06:16:40.597Z,17.1
2023-06-21T06:20:40.314Z,14.73
2023-06-21T06:24:39.691Z,10.93
2023-06-21T06:28:40.328Z,11.1
2023-06-21T06:32:40.480Z,14.95
2023-06-21T06:36:40.680Z,12.68
2023-06-21T06:40:40.455Z,11.02
2023-06-21T06:44:41.067Z,11.38
2023-06-21T06:48:40.632Z,16.65
2023-06-21T06:52:39.482Z,11.15
2023-06-21T06:56:40.509Z,8.98
2023-06-21T07:00:40.621Z,10.7
2023-06-21T07:04:41.916Z,9.5
2023-06-21T07:08:40.566Z,12.18
2023-06-21T07:12:40.469Z,13.8
2023-06-21T07:16:40.435Z,12.27
2023-06-21T07:20:40.617Z,10.1
2023-06-21T07:24:40.085Z,15.27
2023-06-21T07:28:40.564Z,13.55
2023-06-21T07:32:40.462Z,10.6
2023-06-21T07:36:41.841Z,15.35
2023-06-21T07:40:40.461Z,9.5
2023-06-21T07:44:40.563Z,9.95
2023-06-21T07:48:40.624Z,10.45
2023-06-21T07:52:40.838Z,14.43
2023-06-21T07:56:40.427Z,7.43
2023-06-21T08:00:40.578Z,9.43
2023-06-21T08:04:40.456Z,10.65
2023-06-21T08:08:40.536Z,9.75
2023-06-21T08:12:40.341Z,8.32
2023-06-21T08:16:40.448Z,10.7
2023-06-21T08:20:40.466Z,6.97
2023-06-21T08:24:39.421Z,7
2023-06-21T08:28:40.639Z,8.57
2023-06-21T08:32:40.881Z,5.95
2023-06-21T08:36:40.559Z,7.85
2023-06-21T08:40:40.681Z,6.07
2023-06-21T08:44:40.551Z,7.05
2023-06-21T08:48:40.463Z,7.37
2023-06-21T08:52:40.396Z,6.22
2023-06-21T08:56:40.558Z,6.22
2023-06-21T09:00:42.111Z,6.43
2023-06-21T09:04:41.289Z,8.2
2023-06-21T09:08:40.903Z,9.98
2023-06-21T09:12:40.459Z,7.45
2023-06-21T09:16:41.193Z,7.47
2023-06-21T09:20:40.726Z,9.38
2023-06-21T09:24:40.361Z,8.73
2023-06-21T09:28:40.547Z,9.5
2023-06-21T09:32:40.571Z,6.95
2023-06-21T09:36:40.346Z,17.42
2023-06-21T09:40:40.505Z,6.25
2023-06-21T09:44:40.495Z,6.53
2023-06-21T09:48:40.620Z,7.9
2023-06-21T09:52:40.472Z,6.68
2023-06-21T09:56:40.272Z,5.97
2023-06-21T10:00:40.698Z,5.07
2023-06-21T10:04:40.822Z,6.85
2023-06-21T10:08:40.053Z,6.2
2023-06-21T10:12:41.024Z,7.32
2023-06-21T10:16:40.423Z,8.15
2023-06-21T10:20:40.507Z,8.6
2023-06-21T10:24:40.423Z,7.25
2023-06-21T10:28:40.468Z,5.75
2023-06-21T10:32:41.021Z,7.32
2023-06-21T10:36:40.540Z,7.97
2023-06-21T10:40:40.748Z,4.7
2023-06-21T10:44:40.484Z,4.93
2023-06-21T10:48:40.572Z,6.43
2023-06-21T10:52:40.907Z,7.1
2023-06-21T10:56:40.547Z,5.5
2023-06-21T11:00:40.857Z,6.4
2023-06-21T11:04:49.776Z,4.68
2023-06-21T11:08:40.508Z,7.07
2023-06-21T11:12:40.892Z,7.8
2023-06-21T11:16:40.823Z,5.62
2023-06-21T11:20:40.584Z,6.97
2023-06-21T11:24:40.536Z,5.57
2023-06-21T11:28:39.494Z,5.12
2023-06-21T11:32:40.725Z,5.47
2023-06-21T11:36:40.389Z,4.95
2023-06-21T11:40:40.844Z,4.68
2023-06-21T11:44:40.881Z,5.3
2023-06-21T11:48:40.956Z,5.43
2023-06-21T11:52:40.157Z,5.07
2023-06-21T11:56:40.645Z,6.47
2023-06-21T12:00:40.869Z,4.9
2023-06-21T12:04:40.743Z,6.07
2023-06-21T12:08:40.619Z,4.07
2023-06-21T12:12:40.618Z,5.2
2023-06-21T12:16:40.727Z,5.03
2023-06-21T12:20:40.850Z,3.72
2023-06-21T12:24:40.738Z,4.1
2023-06-21T12:28:40.841Z,4.4
2023-06-21T12:32:40.562Z,3.7
2023-06-21T12:36:45.488Z,7.85
2023-06-21T12:40:40.669Z,5.72
2023-06-21T12:44:40.810Z,4.3
2023-06-21T12:48:40.275Z,5.07
2023-06-21T12:52:40.922Z,6.45
2023-06-21T12:56:40.682Z,5.97
2023-06-21T13:00:40.665Z,4.28
2023-06-21T13:04:40.967Z,6.37
2023-06-21T13:08:40.889Z,5.12
2023-06-21T13:12:40.567Z,5.93
2023-06-21T13:16:40.538Z,9.6
2023-06-21T13:20:41.153Z,6.57
2023-06-21T13:24:40.713Z,4.82
2023-06-21T13:28:40.578Z,4.78
2023-06-21T13:32:40.427Z,4.43
2023-06-21T13:36:40.613Z,4.4
2023-06-21T13:40:40.480Z,4.18
2023-06-21T13:44:40.681Z,7
2023-06-21T13:48:40.753Z,8.23
2023-06-21T13:52:40.692Z,3.8
2023-06-21T13:56:40.459Z,7.32
2023-06-21T14:00:40.513Z,5.1
2023-06-21T14:04:41.121Z,6.22
2023-06-21T14:08:40.607Z,6.45
2023-06-21T14:12:40.741Z,6.93
2023-06-21T14:16:41.385Z,7.43
2023-06-21T14:20:40.819Z,4.3
2023-06-21T14:24:40.865Z,4.25
2023-06-21T14:28:40.532Z,6.9
2023-06-21T14:32:40.965Z,4
2023-06-21T14:36:40.581Z,4.78
2023-06-21T14:40:40.886Z,5.87
2023-06-21T14:44:41.171Z,4.07
2023-06-21T14:48:40.874Z,7.53
2023-06-21T14:52:40.730Z,8.32
2023-06-21T14:56:40.640Z,5.15
2023-06-21T15:00:40.779Z,5.3
2023-06-21T15:04:40.915Z,4.47
2023-06-21T15:08:40.891Z,4.05
2023-06-21T15:16:39.290Z,4.95
2023-06-21T15:20:41.021Z,3.75
2023-06-21T15:24:41.005Z,3.95
2023-06-21T15:28:40.451Z,4.45
2023-06-21T15:32:40.339Z,5.87
2023-06-21T15:36:40.648Z,4.12
2023-06-21T15:40:40.583Z,4.53
2023-06-21T15:44:40.508Z,6
2023-06-21T15:48:40.539Z,6.82
2023-06-21T15:52:41.295Z,6.05
2023-06-21T15:56:40.461Z,4.65
2023-06-21T16:00:40.579Z,3.97
2023-06-21T16:04:40.753Z,3.78
2023-06-21T16:08:40.536Z,4.85
2023-06-21T16:12:40.421Z,4.05
2023-06-21T16:16:40.327Z,5.85
2023-06-21T16:20:40.487Z,6.72
2023-06-21T16:24:39.677Z,6.93
2023-06-21T16:28:40.716Z,7.8
2023-06-21T16:32:40.309Z,5.35
2023-06-21T16:36:40.689Z,4.35
2023-06-21T16:40:40.558Z,4.15
2023-06-21T16:44:40.994Z,4.1
2023-06-21T16:48:40.229Z,5.22
2023-06-21T16:52:39.536Z,6.32
2023-06-21T16:56:40.324Z,7.18
2023-06-21T17:00:40.332Z,5.1
2023-06-21T17:04:40.347Z,5.35
2023-06-21T17:08:40.590Z,5.2
2023-06-21T17:12:40.448Z,6.18
2023-06-21T17:16:41.132Z,4.53
2023-06-21T17:20:40.545Z,4.25
2023-06-21T17:24:40.501Z,9.77
2023-06-21T17:28:40.493Z,6.32
2023-06-21T17:32:40.371Z,5.45
2023-06-21T17:36:39.680Z,9.18
2023-06-21T17:40:41.193Z,5.43
2023-06-21T17:44:40.428Z,4.45
2023-06-21T17:48:40.526Z,6.7
2023-06-21T17:52:40.512Z,6.45
2023-06-21T17:56:40.332Z,7.43
2023-06-21T18:00:40.552Z,5.37
2023-06-21T18:04:40.522Z,4.93
2023-06-21T18:08:40.412Z,6.47
2023-06-21T18:12:40.342Z,8.65
2023-06-21T18:16:40.691Z,7.8
2023-06-21T18:20:40.517Z,4.7
2023-06-21T18:24:40.493Z,5.62
2023-06-21T18:28:40.517Z,6.78
2023-06-21T18:32:40.623Z,6.2
2023-06-21T18:36:40.461Z,5.45
2023-06-21T18:40:39.697Z,5.55
2023-06-21T18:44:40.543Z,4.7
2023-06-21T18:48:40.397Z,5.37
2023-06-21T18:52:40.425Z,5.87
2023-06-21T18:56:40.293Z,5.68
2023-06-21T19:00:41.140Z,5.22
2023-06-21T19:04:43.104Z,6
2023-06-21T19:08:40.414Z,6.9
2023-06-21T19:12:41.021Z,7.95
2023-06-21T19:16:40.817Z,5.93
2023-06-21T19:20:40.769Z,9.52
2023-06-21T19:24:41.286Z,8.93
2023-06-21T19:28:40.556Z,5.85
2023-06-21T19:32:40.324Z,6.15
2023-06-21T19:36:40.271Z,5.78
2023-06-21T19:40:40.543Z,6.2
2023-06-21T19:44:40.516Z,7.57
2023-06-21T19:48:40.533Z,5.95
2023-06-21T19:52:40.401Z,5.6
2023-06-21T19:56:40.130Z,5.18
2023-06-21T20:00:40.568Z,6.25
2023-06-21T20:04:40.659Z,9.4
2023-06-21T20:08:40.341Z,9.82
2023-06-21T20:12:40.718Z,12.48
2023-06-21T20:16:40.678Z,6.35
2023-06-21T20:20:40.571Z,7.43
2023-06-21T20:24:40.419Z,8.5
2023-06-21T20:28:40.483Z,7.53
2023-06-21T20:32:40.562Z,11.73
2023-06-21T20:36:40.969Z,10.38
2023-06-21T20:40:40.435Z,7.3
2023-06-21T20:44:40.483Z,8.98
2023-06-21T20:48:40.764Z,7.15
2023-06-21T20:52:40.454Z,10.05
2023-06-21T20:56:40.555Z,10.48
2023-06-21T21:00:40.633Z,9.7
2023-06-21T21:04:40.446Z,10.27
2023-06-21T21:08:40.457Z,7.97
2023-06-21T21:12:39.904Z,7.32
2023-06-21T21:16:40.504Z,12.07
2023-06-21T21:20:40.641Z,8.3
2023-06-21T21:24:40.383Z,9.48
2023-06-21T21:28:40.570Z,7.15
2023-06-21T21:32:40.601Z,11.23
2023-06-21T21:36:40.602Z,7.37
2023-06-21T21:40:40.781Z,8.4
2023-06-21T21:44:40.499Z,8.4
2023-06-21T21:48:40.568Z,7.75
2023-06-21T21:52:40.586Z,8.45
2023-06-21T21:56:39.536Z,8.57
2023-06-21T22:00:40.135Z,10.02
2023-06-21T22:04:39.442Z,8.1
2023-06-21T22:08:40.387Z,14.6
2023-06-21T22:12:39.299Z,9.68
2023-06-21T22:16:40.371Z,8.85
2023-06-21T22:20:40.533Z,8.43
2023-06-21T22:24:40.425Z,9.57
2023-06-21T22:28:40.449Z,9.48
2023-06-21T22:32:40.588Z,9.82
2023-06-21T22:36:40.723Z,11.05
2023-06-21T22:40:40.444Z,9.65
2023-06-21T22:44:40.648Z,11.12
2023-06-21T22:48:40.504Z,12.45
2023-06-21T22:52:40.757Z,9.77
2023-06-21T22:56:40.404Z,12.3
2023-06-21T23:00:40.606Z,11.18
2023-06-21T23:04:40.890Z,12.02
2023-06-21T23:08:40.484Z,10.13
2023-06-21T23:12:40.379Z,10.2
2023-06-21T23:16:40.440Z,11.82
2023-06-21T23:20:40.630Z,11.07
2023-06-21T23:24:39.684Z,10.38
2023-06-21T23:28:41.163Z,12.52
2023-06-21T23:32:40.482Z,11.32
2023-06-21T23:36:42.932Z,10.7
2023-06-21T23:40:39.490Z,11.25
2023-06-21T23:44:41.183Z,12.15
2023-06-21T23:48:40.458Z,12.02
2023-06-21T23:52:40.635Z,12.73
2023-06-21T23:56:40.408Z,15.5
